createdAt,value
2023-01-09T00:01:19.472Z,2.38
2023-01-09T00:03:47.401Z,1.80
2023-01-09T00:06:15.270Z,6.68
2023-01-09T00:08:43.166Z,2.05
2023-01-09T00:11:11.095Z,2.33
2023-01-09T00:13:40.712Z,7.00
2023-01-09T00:16:10.481Z,3.17
2023-01-09T00:18:39.445Z,2.65
2023-01-09T00:21:09.383Z,3.47
2023-01-09T00:23:37.906Z,3.47
2023-01-09T00:26:08.312Z,2.42
2023-01-09T00:28:37.169Z,4.05
2023-01-09T00:31:08.881Z,2.60
2023-01-09T00:33:39.684Z,4.43
2023-01-09T00:36:08.826Z,5.30
2023-01-09T00:38:37.284Z,10.45
2023-01-09T00:41:07.138Z,3.03
2023-01-09T00:43:39.253Z,5.05
2023-01-09T00:46:09.504Z,4.00
2023-01-09T00:48:42.723Z,3.55
2023-01-09T00:51:10.643Z,6.60
2023-01-09T00:53:42.920Z,3.70
2023-01-09T00:56:14.947Z,5.05
2023-01-09T00:58:43.527Z,10.30
2023-01-09T01:01:13.377Z,4.35
2023-01-09T01:03:41.245Z,6.93
2023-01-09T01:06:27.463Z,6.45
2023-01-09T01:08:56.051Z,3.28
2023-01-09T01:11:24.495Z,4.72
2023-01-09T01:13:53.316Z,8.57
2023-01-09T01:16:22.594Z,7.63
2023-01-09T01:18:50.708Z,4.10
2023-01-09T01:21:19.514Z,7.18
2023-01-09T01:23:47.886Z,5.85
2023-01-09T01:26:17.118Z,5.63
2023-01-09T01:28:46.385Z,7.40
2023-01-09T01:31:19.294Z,5.80
2023-01-09T01:33:49.058Z,4.53
2023-01-09T01:36:17.916Z,5.63
2023-01-09T01:38:46.886Z,9.13
2023-01-09T01:41:30.068Z,8.40
2023-01-09T01:44:00.531Z,4.75
2023-01-09T01:46:28.881Z,6.15
2023-01-09T01:49:03.084Z,9.57
2023-01-09T01:51:33.680Z,3.88
2023-01-09T01:54:07.628Z,11.57
2023-01-09T01:56:39.347Z,4.05
2023-01-09T01:59:13.271Z,3.97
2023-01-09T02:01:45.395Z,5.47
2023-01-09T02:04:14.990Z,5.20
2023-01-09T02:06:43.501Z,3.20
2023-01-09T02:09:15.734Z,6.50
2023-01-09T02:11:45.885Z,4.78
2023-01-09T02:14:13.930Z,4.80
2023-01-09T02:16:53.033Z,4.63
2023-01-09T02:20:00.157Z,5.13
2023-01-09T02:22:37.404Z,4.85
2023-01-09T02:25:31.193Z,4.97
2023-01-09T02:28:22.846Z,7.15
2023-01-09T02:30:58.184Z,7.47
2023-01-09T02:36:13.150Z,4.38
2023-01-09T02:38:51.132Z,7.35
2023-01-09T02:41:24.881Z,5.25
2023-01-09T02:44:19.979Z,8.75
2023-01-09T02:46:49.459Z,5.80
2023-01-09T02:49:18.451Z,5.80
2023-01-09T02:51:53.373Z,4.85
2023-01-09T02:54:30.404Z,5.63
2023-01-09T02:57:18.168Z,8.15
2023-01-09T02:59:58.438Z,6.75
2023-01-09T03:02:44.153Z,7.72
2023-01-09T03:07:47.390Z,6.43
2023-01-09T03:10:20.649Z,8.90
2023-01-09T03:12:54.176Z,6.40
2023-01-09T03:15:25.676Z,4.50
2023-01-09T03:17:57.536Z,8.25
2023-01-09T03:20:28.763Z,7.18
2023-01-09T03:22:58.568Z,6.13
2023-01-09T03:25:27.576Z,10.07
2023-01-09T03:27:59.186Z,7.90
2023-01-09T03:30:28.690Z,12.25
2023-01-09T03:32:58.825Z,4.50
2023-01-09T03:35:27.780Z,8.40
2023-01-09T03:37:55.831Z,6.32
2023-01-09T03:40:23.728Z,12.32
2023-01-09T03:42:52.058Z,7.85
2023-01-09T03:45:19.826Z,5.65
2023-01-09T03:47:47.787Z,11.48
2023-01-09T03:50:17.971Z,14.05
2023-01-09T03:52:45.892Z,9.93
2023-01-09T03:55:15.523Z,13.13
2023-01-09T03:57:44.243Z,8.02
2023-01-09T04:00:13.324Z,4.85
2023-01-09T04:02:41.563Z,10.68
2023-01-09T04:05:10.546Z,5.32
2023-01-09T04:07:40.358Z,8.20
2023-01-09T04:10:08.778Z,9.23
2023-01-09T04:12:37.123Z,8.30
2023-01-09T04:15:05.450Z,6.47
2023-01-09T04:17:33.437Z,8.95
2023-01-09T04:20:01.807Z,10.68
2023-01-09T04:22:31.421Z,7.30
2023-01-09T04:25:00.814Z,9.52
2023-01-09T04:27:29.262Z,9.75
2023-01-09T04:29:57.063Z,7.50
2023-01-09T04:32:27.587Z,9.10
2023-01-09T04:34:57.484Z,11.45
2023-01-09T04:37:25.767Z,11.88
2023-01-09T04:39:56.005Z,11.27
2023-01-09T04:42:26.030Z,9.52
2023-01-09T04:44:54.424Z,21.65
2023-01-09T04:47:23.822Z,11.88
2023-01-09T04:49:52.372Z,14.07
2023-01-09T04:52:20.459Z,10.38
2023-01-09T04:54:48.415Z,13.07
2023-01-09T04:57:16.781Z,10.68
2023-01-09T04:59:46.224Z,7.60
2023-01-09T05:02:14.215Z,12.50
2023-01-09T05:04:43.000Z,13.15
2023-01-09T05:07:11.323Z,11.73
2023-01-09T05:09:39.150Z,7.32
2023-01-09T05:12:08.424Z,6.82
2023-01-09T05:14:36.245Z,6.00
2023-01-09T05:17:07.022Z,10.20
2023-01-09T05:19:36.144Z,9.05
2023-01-09T05:22:03.983Z,7.97
2023-01-09T05:24:31.872Z,10.55
2023-01-09T05:27:00.193Z,8.63
2023-01-09T05:29:28.054Z,9.23
2023-01-09T05:31:55.973Z,9.90
2023-01-09T05:34:26.165Z,12.07
2023-01-09T05:36:53.994Z,10.40
2023-01-09T05:39:21.836Z,12.18
2023-01-09T05:41:50.054Z,11.00
2023-01-09T05:44:18.063Z,12.52
2023-01-09T05:46:46.067Z,10.70
2023-01-09T05:49:14.515Z,10.02
2023-01-09T05:51:43.684Z,8.40
2023-01-09T05:54:11.615Z,10.20
2023-01-09T05:56:40.105Z,8.93
2023-01-09T05:59:07.977Z,11.10
2023-01-09T06:01:35.908Z,11.30
2023-01-09T06:04:04.456Z,9.73
2023-01-09T06:06:32.636Z,6.90
2023-01-09T06:09:03.578Z,11.50
2023-01-09T06:11:32.104Z,6.32
2023-01-09T06:13:59.975Z,5.60
2023-01-09T06:16:28.498Z,10.77
2023-01-09T06:18:57.114Z,15.77
2023-01-09T06:21:25.043Z,6.03
2023-01-09T06:23:52.825Z,9.35
2023-01-09T06:26:22.604Z,7.35
2023-01-09T06:28:50.526Z,8.13
2023-01-09T06:31:18.823Z,9.65
2023-01-09T06:33:47.148Z,7.70
2023-01-09T06:36:15.419Z,8.82
2023-01-09T06:38:43.442Z,9.00
2023-01-09T06:41:11.504Z,7.85
2023-01-09T06:43:41.102Z,7.85
2023-01-09T06:46:09.220Z,7.63
2023-01-09T06:48:37.550Z,10.73
2023-01-09T06:51:05.665Z,6.82
2023-01-09T06:53:35.032Z,8.75
2023-01-09T06:56:04.263Z,9.73
2023-01-09T06:58:32.100Z,7.38
2023-01-09T07:01:01.479Z,7.68
2023-01-09T07:03:29.377Z,7.65
2023-01-09T07:05:57.653Z,7.03
2023-01-09T07:08:25.520Z,9.00
2023-01-09T07:10:53.737Z,7.80
2023-01-09T07:13:21.892Z,9.85
2023-01-09T07:15:50.310Z,8.50
2023-01-09T07:18:20.283Z,8.52
2023-01-09T07:20:48.468Z,10.20
2023-01-09T07:23:18.096Z,8.43
2023-01-09T07:25:46.846Z,5.40
2023-01-09T07:28:14.590Z,10.95
2023-01-09T07:30:42.629Z,8.35
2023-01-09T07:33:11.799Z,10.25
2023-01-09T07:35:40.923Z,9.43
2023-01-09T07:38:08.731Z,6.03
2023-01-09T07:40:37.089Z,8.48
2023-01-09T07:43:04.999Z,6.63
2023-01-09T07:45:32.720Z,6.10
2023-01-09T07:48:00.985Z,8.82
2023-01-09T07:50:28.989Z,13.35
2023-01-09T07:52:58.234Z,9.30
2023-01-09T07:55:25.980Z,9.48
2023-01-09T07:57:53.791Z,11.48
2023-01-09T08:00:22.328Z,7.25
2023-01-09T08:02:53.444Z,9.82
2023-01-09T08:05:21.597Z,9.73
2023-01-09T08:07:50.988Z,12.07
2023-01-09T08:10:21.811Z,7.82
2023-01-09T08:12:50.928Z,8.88
2023-01-09T08:15:19.634Z,16.15
2023-01-09T08:17:48.346Z,10.32
2023-01-09T08:20:18.429Z,8.43
2023-01-09T08:22:52.177Z,8.25
2023-01-09T08:25:21.457Z,6.97
2023-01-09T08:27:49.510Z,9.93
2023-01-09T08:30:19.038Z,5.65
2023-01-09T08:32:50.498Z,6.35
2023-01-09T08:35:19.495Z,8.35
2023-01-09T08:37:47.637Z,4.85
2023-01-09T08:40:16.925Z,7.43
2023-01-09T08:43:04.194Z,5.10
2023-01-09T08:45:55.499Z,12.95
2023-01-09T08:48:23.670Z,6.45
2023-01-09T08:50:52.208Z,4.75
2023-01-09T08:53:19.995Z,3.97
2023-01-09T08:55:48.193Z,2.95
2023-01-09T08:58:17.539Z,5.68
2023-01-09T09:00:45.288Z,2.13
2023-01-09T09:03:13.928Z,5.95
2023-01-09T09:05:41.864Z,4.55
2023-01-09T09:08:09.708Z,2.55
2023-01-09T09:10:37.781Z,6.25
2023-01-09T09:13:05.684Z,6.00
2023-01-09T09:15:35.339Z,3.42
2023-01-09T09:18:07.411Z,2.58
2023-01-09T09:20:37.659Z,2.60
2023-01-09T09:23:08.225Z,1.83
2023-01-09T09:25:38.280Z,2.65
2023-01-09T09:28:06.724Z,4.20
2023-01-09T09:30:36.088Z,2.35
2023-01-09T09:33:04.622Z,3.30
2023-01-09T09:35:33.815Z,1.63
2023-01-09T09:38:05.484Z,3.30
2023-01-09T09:40:52.911Z,1.20
2023-01-09T09:43:54.728Z,1.80
2023-01-09T09:46:34.092Z,2.03
2023-01-09T09:49:07.689Z,1.00
2023-01-09T09:51:56.686Z,2.63
2023-01-09T09:54:31.218Z,1.98
2023-01-09T09:57:01.849Z,2.53
2023-01-09T09:59:33.490Z,3.85
2023-01-09T10:02:11.650Z,3.78
2023-01-09T10:04:47.121Z,3.75
2023-01-09T10:09:50.604Z,2.15
2023-01-09T10:12:28.576Z,5.47
2023-01-09T10:14:58.178Z,10.82
2023-01-09T10:17:41.860Z,4.20
2023-01-09T10:20:33.244Z,3.03
2023-01-09T10:23:11.453Z,3.30
2023-01-09T10:25:44.950Z,1.77
2023-01-09T10:28:32.707Z,3.65
2023-01-09T10:31:05.710Z,3.45
2023-01-09T10:33:50.613Z,2.38
2023-01-09T10:36:39.037Z,5.53
2023-01-09T10:39:13.246Z,6.70
2023-01-09T10:41:47.622Z,16.33
2023-01-09T10:44:21.281Z,4.35
2023-01-09T10:46:54.711Z,7.43
2023-01-09T10:49:25.409Z,7.97
2023-01-09T10:52:01.100Z,23.30
2023-01-09T10:54:30.703Z,12.25
2023-01-09T10:57:06.565Z,6.88
2023-01-09T10:59:34.449Z,4.05
2023-01-09T11:02:02.518Z,12.07
2023-01-09T11:04:35.759Z,6.50
2023-01-09T11:07:07.522Z,6.20
2023-01-09T11:09:57.011Z,3.90
2023-01-09T11:12:26.972Z,8.40
2023-01-09T11:14:54.996Z,10.05
2023-01-09T11:17:27.114Z,4.68
2023-01-09T11:20:15.906Z,6.35
2023-01-09T11:22:47.119Z,6.78
2023-01-09T11:25:17.037Z,5.93
2023-01-09T11:27:45.056Z,6.38
2023-01-09T11:30:21.746Z,3.30
2023-01-09T11:32:49.814Z,6.05
2023-01-09T11:35:22.656Z,8.98
2023-01-09T11:38:00.018Z,9.70
2023-01-09T11:40:29.854Z,2.00
2023-01-09T11:43:07.266Z,2.85
2023-01-09T11:45:37.090Z,4.75
2023-01-09T11:48:18.551Z,5.05
2023-01-09T11:50:57.790Z,4.40
2023-01-09T11:53:26.456Z,3.40
2023-01-09T11:56:01.797Z,4.60
2023-01-09T12:01:10.633Z,3.53
2023-01-09T12:04:00.875Z,3.65
2023-01-09T12:06:42.367Z,5.43
2023-01-09T12:09:20.101Z,5.00
2023-01-09T12:11:56.262Z,6.95
2023-01-09T12:14:36.915Z,7.60
2023-01-09T12:17:32.218Z,5.43
2023-01-09T12:20:17.958Z,5.63
2023-01-09T12:25:30.184Z,5.20
2023-01-09T12:28:16.416Z,5.30
2023-01-09T12:31:00.818Z,7.57
2023-01-09T12:33:40.771Z,4.85
2023-01-09T12:36:17.865Z,4.68
2023-01-09T12:38:56.905Z,4.30
2023-01-09T12:41:48.404Z,8.68
2023-01-09T12:44:36.460Z,14.25
2023-01-09T12:47:23.476Z,4.57
2023-01-09T12:50:03.350Z,6.10
2023-01-09T12:52:35.525Z,7.50
2023-01-09T12:55:14.392Z,7.18
2023-01-09T12:57:45.074Z,8.02
2023-01-09T13:00:19.115Z,9.27
2023-01-09T13:03:03.546Z,8.05
2023-01-09T13:05:38.595Z,8.18
2023-01-09T13:08:13.177Z,7.07
2023-01-09T13:10:46.539Z,5.85
2023-01-09T13:13:20.104Z,11.50
2023-01-09T13:15:52.215Z,13.10
2023-01-09T13:18:24.126Z,10.57
2023-01-09T13:20:56.761Z,6.65
2023-01-09T13:23:34.646Z,7.47
2023-01-09T13:26:07.756Z,9.57
2023-01-09T13:28:38.272Z,3.70
2023-01-09T13:31:31.866Z,6.63
2023-01-09T13:34:02.909Z,10.45
2023-01-09T13:36:34.998Z,11.35
2023-01-09T13:39:03.661Z,10.50
2023-01-09T13:41:50.345Z,9.13
2023-01-09T13:44:24.776Z,10.32
2023-01-09T13:46:55.557Z,8.13
2023-01-09T13:50:06.544Z,5.90
2023-01-09T13:52:37.927Z,9.15
2023-01-09T13:55:35.628Z,11.35
2023-01-09T13:58:23.503Z,7.70
2023-01-09T14:00:54.391Z,12.27
2023-01-09T14:03:26.738Z,8.82
2023-01-09T14:06:20.122Z,14.43
2023-01-09T14:08:50.793Z,18.90
2023-01-09T14:11:21.589Z,8.40
2023-01-09T14:14:02.346Z,13.38
2023-01-09T14:16:32.260Z,12.55
2023-01-09T14:19:06.274Z,9.88
2023-01-09T14:21:50.899Z,8.30
2023-01-09T14:24:27.278Z,12.73
2023-01-09T14:26:57.862Z,10.82
2023-01-09T14:29:41.613Z,11.35
2023-01-09T14:32:43.896Z,16.20
2023-01-09T14:35:16.945Z,11.32
2023-01-09T14:37:47.279Z,7.80
2023-01-09T14:40:23.676Z,11.13
2023-01-09T14:42:54.496Z,13.30
2023-01-09T14:45:26.784Z,9.20
2023-01-09T14:47:59.290Z,8.25
2023-01-09T14:50:34.717Z,10.95
2023-01-09T14:55:41.902Z,11.55
2023-01-09T14:58:14.220Z,7.93
2023-01-09T15:00:50.211Z,7.95
2023-01-09T15:03:18.384Z,12.27
2023-01-09T15:05:47.988Z,8.48
2023-01-09T15:08:20.008Z,7.05
2023-01-09T15:10:50.383Z,15.15
2023-01-09T15:13:24.248Z,7.28
2023-01-09T15:15:53.764Z,8.88
2023-01-09T15:18:25.331Z,13.52
2023-01-09T15:20:55.886Z,8.82
2023-01-09T15:23:28.689Z,10.85
2023-01-09T15:25:57.774Z,6.97
2023-01-09T15:28:30.283Z,9.48
2023-01-09T15:31:04.019Z,8.85
2023-01-09T15:33:33.663Z,9.68
2023-01-09T15:36:06.439Z,8.18
2023-01-09T15:38:36.672Z,7.30
2023-01-09T15:41:09.758Z,14.18
2023-01-09T15:43:42.582Z,9.35
2023-01-09T15:46:13.147Z,12.98
2023-01-09T15:48:40.879Z,6.95
2023-01-09T15:51:12.154Z,8.13
2023-01-09T15:53:42.229Z,9.80
2023-01-09T15:56:19.915Z,7.40
2023-01-09T15:58:49.421Z,6.93
2023-01-09T16:01:31.813Z,6.40
2023-01-09T16:04:06.726Z,10.18
2023-01-09T16:06:37.708Z,7.53
2023-01-09T16:09:15.991Z,8.43
2023-01-09T16:11:48.959Z,10.27
2023-01-09T16:14:21.770Z,8.68
2023-01-09T16:16:53.860Z,7.10
2023-01-09T16:19:32.621Z,8.50
2023-01-09T16:22:02.290Z,6.88
2023-01-09T16:24:40.127Z,14.02
2023-01-09T16:27:31.209Z,7.65
2023-01-09T16:30:00.381Z,11.32
2023-01-09T16:35:23.415Z,11.45
2023-01-09T16:37:51.842Z,10.68
2023-01-09T16:40:27.986Z,12.45
2023-01-09T16:43:03.999Z,16.85
2023-01-09T16:45:35.697Z,9.73
2023-01-09T16:48:13.060Z,12.60
2023-01-09T16:50:41.470Z,15.15
2023-01-09T16:53:16.072Z,9.35
2023-01-09T16:55:44.472Z,9.02
2023-01-09T16:58:18.382Z,11.00
2023-01-09T17:00:46.523Z,9.50
2023-01-09T17:03:17.595Z,9.25
2023-01-09T17:05:45.745Z,9.40
2023-01-09T17:08:21.936Z,7.15
2023-01-09T17:10:49.877Z,10.93
2023-01-09T17:13:17.750Z,19.00
2023-01-09T17:15:46.785Z,11.00
2023-01-09T17:18:18.187Z,10.10
2023-01-09T17:20:49.540Z,13.15
2023-01-09T17:23:20.090Z,10.93
2023-01-09T17:26:06.606Z,13.57
2023-01-09T17:28:35.660Z,12.57
2023-01-09T17:31:06.609Z,20.00
2023-01-09T17:33:36.660Z,16.60
2023-01-09T17:36:07.776Z,13.55
2023-01-09T17:38:35.575Z,10.60
2023-01-09T17:41:03.466Z,13.52
2023-01-09T17:43:32.893Z,13.75
2023-01-09T17:46:01.117Z,37.65
2023-01-09T17:48:29.563Z,29.23
2023-01-09T17:50:59.463Z,23.30
2023-01-09T17:53:29.458Z,36.25
2023-01-09T17:55:57.401Z,35.42
2023-01-09T17:58:29.173Z,30.25
2023-01-09T18:00:57.959Z,34.65
2023-01-09T18:03:31.180Z,30.95
2023-01-09T18:06:01.278Z,14.90
2023-01-09T18:08:29.355Z,13.40
2023-01-09T18:10:57.291Z,15.35
2023-01-09T18:13:25.141Z,15.18
2023-01-09T18:15:52.996Z,11.45
2023-01-09T18:18:22.735Z,18.10
2023-01-09T18:20:51.072Z,17.23
2023-01-09T18:23:20.892Z,10.32
2023-01-09T18:25:49.077Z,10.80
2023-01-09T18:28:18.527Z,19.70
2023-01-09T18:30:47.835Z,15.30
2023-01-09T18:33:17.608Z,9.05
2023-01-09T18:35:46.433Z,8.05
2023-01-09T18:38:14.282Z,12.50
2023-01-09T18:40:43.758Z,16.17
2023-01-09T18:43:12.102Z,13.25
2023-01-09T18:45:40.627Z,16.50
2023-01-09T18:48:09.978Z,7.82
2023-01-09T18:50:37.908Z,10.98
2023-01-09T18:53:06.273Z,7.95
2023-01-09T18:55:34.188Z,19.23
2023-01-09T18:58:03.788Z,15.13
2023-01-09T19:00:32.117Z,20.60
2023-01-09T19:03:00.052Z,13.15
2023-01-09T19:05:27.851Z,16.50
2023-01-09T19:07:55.768Z,23.00
2023-01-09T19:10:23.840Z,12.05
2023-01-09T19:12:51.714Z,11.35
2023-01-09T19:15:20.947Z,25.95
2023-01-09T19:17:50.569Z,18.25
2023-01-09T19:20:19.021Z,17.38
2023-01-09T19:22:46.944Z,43.40
2023-01-09T19:25:14.953Z,20.88
2023-01-09T19:27:42.830Z,24.30
2023-01-09T19:30:12.234Z,25.27
2023-01-09T19:32:42.449Z,17.23
2023-01-09T19:35:10.538Z,9.32
2023-01-09T19:37:38.481Z,13.45
2023-01-09T19:40:07.472Z,11.18
2023-01-09T19:42:35.274Z,13.90
2023-01-09T19:45:03.360Z,14.82
2023-01-09T19:47:35.702Z,13.48
2023-01-09T19:50:05.999Z,17.58
2023-01-09T19:52:33.940Z,16.70
2023-01-09T19:55:01.965Z,18.02
2023-01-09T19:57:29.931Z,15.40
2023-01-09T19:59:57.849Z,21.55
2023-01-09T20:02:25.824Z,14.43
2023-01-09T20:04:53.868Z,14.77
2023-01-09T20:07:23.163Z,15.70
2023-01-09T20:09:52.114Z,14.00
2023-01-09T20:12:19.938Z,15.07
2023-01-09T20:14:47.700Z,18.00
2023-01-09T20:17:16.014Z,17.98
2023-01-09T20:19:45.541Z,14.50
2023-01-09T20:22:15.687Z,11.98
2023-01-09T20:24:45.339Z,12.32
2023-01-09T20:27:13.286Z,13.80
2023-01-09T20:29:41.031Z,16.38
2023-01-09T20:32:10.414Z,12.38
2023-01-09T20:34:38.140Z,19.35
2023-01-09T20:37:06.028Z,17.95
2023-01-09T20:39:36.179Z,21.80
2023-01-09T20:42:05.534Z,14.05
2023-01-09T20:44:33.280Z,17.02
2023-01-09T20:47:01.529Z,10.68
2023-01-09T20:49:29.391Z,14.63
2023-01-09T20:51:57.216Z,17.73
2023-01-09T20:54:25.801Z,13.65
2023-01-09T20:56:55.067Z,13.90
2023-01-09T20:59:25.485Z,12.82
2023-01-09T21:01:53.337Z,18.50
2023-01-09T21:04:21.257Z,15.70
2023-01-09T21:06:50.889Z,19.17
2023-01-09T21:09:20.361Z,23.05
2023-01-09T21:11:48.315Z,11.18
2023-01-09T21:14:16.723Z,16.67
2023-01-09T21:16:54.042Z,18.02
2023-01-09T21:19:23.120Z,16.48
2023-01-09T21:21:53.105Z,14.00
2023-01-09T21:24:21.398Z,16.63
2023-01-09T21:26:49.340Z,12.85
2023-01-09T21:29:17.552Z,14.85
2023-01-09T21:31:47.162Z,11.75
2023-01-09T21:34:17.613Z,18.00
2023-01-09T21:36:48.667Z,13.20
2023-01-09T21:39:17.950Z,18.48
2023-01-09T21:42:03.362Z,11.50
2023-01-09T21:44:49.043Z,18.05
2023-01-09T21:47:18.328Z,12.60
2023-01-09T21:49:46.291Z,14.32
2023-01-09T21:52:15.933Z,18.52
2023-01-09T21:54:43.861Z,11.55
2023-01-09T21:57:12.952Z,11.57
2023-01-09T21:59:41.394Z,16.95
2023-01-09T22:02:12.600Z,13.30
2023-01-09T22:04:42.995Z,10.77
2023-01-09T22:07:11.420Z,16.83
2023-01-09T22:09:39.299Z,9.30
2023-01-09T22:12:08.206Z,13.93
2023-01-09T22:14:36.418Z,17.20
2023-01-09T22:17:05.353Z,16.80
2023-01-09T22:19:33.698Z,12.00
2023-01-09T22:22:07.201Z,15.07
2023-01-09T22:24:36.073Z,15.27
2023-01-09T22:27:04.114Z,12.93
2023-01-09T22:29:31.913Z,15.15
2023-01-09T22:32:00.448Z,14.45
2023-01-09T22:34:28.433Z,16.13
2023-01-09T22:36:56.198Z,14.43
2023-01-09T22:39:26.852Z,17.15
2023-01-09T22:41:55.288Z,16.80
2023-01-09T22:44:23.666Z,15.18
2023-01-09T22:46:51.995Z,14.48
2023-01-09T22:49:19.924Z,14.68
2023-01-09T22:51:47.748Z,20.17
2023-01-09T22:54:16.567Z,17.48
2023-01-09T22:56:45.842Z,11.30
2023-01-09T22:59:13.868Z,15.40
2023-01-09T23:01:42.283Z,13.38
2023-01-09T23:04:13.177Z,15.15
2023-01-09T23:06:41.170Z,15.82
2023-01-09T23:09:09.108Z,14.60
2023-01-09T23:11:54.437Z,14.63
2023-01-09T23:14:24.247Z,18.17
2023-01-09T23:16:52.219Z,15.82
2023-01-09T23:19:20.088Z,10.48
2023-01-09T23:21:48.586Z,16.60
2023-01-09T23:24:17.883Z,12.85
2023-01-09T23:26:46.556Z,17.58
2023-01-09T23:29:15.850Z,14.32
2023-01-09T23:31:45.404Z,14.18
2023-01-09T23:34:16.280Z,18.75
2023-01-09T23:36:44.460Z,15.68
2023-01-09T23:39:12.231Z,25.95
2023-01-09T23:41:58.984Z,14.93
2023-01-09T23:44:27.096Z,12.60
2023-01-09T23:46:56.422Z,12.80
2023-01-09T23:49:24.588Z,19.92
2023-01-09T23:51:52.574Z,19.83
2023-01-09T23:54:20.471Z,19.65
2023-01-09T23:56:48.909Z,16.88
2023-01-09T23:59:18.221Z,18.30
